Terminal Aerodrome Forecast
Issued by NWS

Home | Current Version | Previous Version | Text Only | Print | Product List | Glossary On
Versions: 1 2 3 4 5 6 7 8 9 10 11 12 13 14 15 16 17 18 19
000
FTUS41 KPBZ 270203 AAC
TAFZZV
TAF AMD
KZZV 270203Z 2702/2724 19007KT 5SM -RA BKN060
      TEMPO 2702/2703 2SM -TSRA BR BKN035CB
     FM270600 20007KT 5SM BR BKN015
     FM271500 21008KT P6SM BKN060=

USA.gov is the U.S. government's official web portal to all federal, state and local government web resources and services.